createdAt,value
2023-01-03T00:02:07.842Z,1.44
2023-01-03T00:04:34.697Z,1.10
2023-01-03T00:07:04.568Z,0.89
2023-01-03T00:09:31.643Z,0.89
2023-01-03T00:12:17.036Z,0.79
2023-01-03T00:14:44.878Z,0.66
2023-01-03T00:17:12.995Z,0.81
2023-01-03T00:19:44.592Z,0.73
2023-01-03T00:22:12.945Z,0.88
2023-01-03T00:24:39.841Z,0.76
2023-01-03T00:27:06.941Z,0.83
2023-01-03T00:29:34.223Z,1.04
2023-01-03T00:32:01.178Z,0.74
2023-01-03T00:34:28.370Z,0.70
2023-01-03T00:36:55.863Z,0.84
2023-01-03T00:39:23.188Z,1.04
2023-01-03T00:41:50.485Z,1.37
2023-01-03T00:44:18.169Z,1.23
2023-01-03T00:46:45.969Z,1.04
2023-01-03T00:49:12.912Z,0.85
2023-01-03T00:51:41.257Z,0.77
2023-01-03T00:54:09.458Z,0.88
2023-01-03T00:56:39.197Z,0.71
2023-01-03T00:59:07.060Z,0.82
2023-01-03T01:01:47.562Z,0.88
2023-01-03T01:04:22.764Z,0.60
2023-01-03T01:06:56.094Z,0.46
2023-01-03T01:09:25.881Z,0.52
2023-01-03T01:11:53.165Z,0.47
2023-01-03T01:14:23.399Z,0.50
2023-01-03T01:16:57.376Z,0.68
2023-01-03T01:19:27.290Z,0.70
2023-01-03T01:21:54.475Z,0.56
2023-01-03T01:24:21.678Z,0.61
2023-01-03T01:26:48.750Z,0.32
2023-01-03T01:29:17.504Z,0.28
2023-01-03T01:31:46.511Z,0.24
2023-01-03T01:34:14.737Z,0.38
2023-01-03T01:36:43.216Z,0.22
2023-01-03T01:39:17.101Z,0.29
2023-01-03T01:42:03.955Z,0.43
2023-01-03T01:44:42.886Z,0.38
2023-01-03T01:47:24.722Z,0.14
2023-01-03T01:50:13.713Z,0.23
2023-01-03T01:52:48.748Z,0.21
2023-01-03T01:55:20.803Z,0.04
2023-01-03T01:57:48.045Z,0.15
2023-01-03T02:00:15.662Z,0.18
2023-01-03T02:02:44.117Z,0.34
2023-01-03T02:05:12.063Z,0.31
2023-01-03T02:07:39.751Z,0.56
2023-01-03T02:10:07.689Z,0.50
2023-01-03T02:13:05.908Z,0.76
2023-01-03T02:15:58.240Z,0.39
2023-01-03T02:18:47.072Z,0.49
2023-01-03T02:21:34.952Z,0.74
2023-01-03T02:24:20.604Z,0.35
2023-01-03T02:27:30.360Z,0.34
2023-01-03T02:30:15.891Z,0.30
2023-01-03T02:33:09.075Z,0.31
2023-01-03T02:35:47.905Z,0.45
2023-01-03T02:38:37.482Z,0.41
2023-01-03T02:41:18.693Z,0.12
2023-01-03T02:44:17.468Z,0.15
2023-01-03T02:46:54.632Z,0.35
2023-01-03T02:49:53.510Z,0.53
2023-01-03T02:52:25.931Z,0.42
2023-01-03T02:55:03.143Z,0.29
2023-01-03T02:58:04.446Z,0.51
2023-01-03T03:00:35.402Z,0.59
2023-01-03T03:03:09.415Z,1.05
2023-01-03T03:06:17.978Z,1.02
2023-01-03T03:08:46.301Z,0.74
2023-01-03T03:11:32.684Z,0.91
2023-01-03T03:14:22.626Z,0.96
2023-01-03T03:16:51.805Z,1.06
2023-01-03T03:19:50.786Z,1.04
2023-01-03T03:22:54.213Z,0.74
2023-01-03T03:25:36.366Z,0.74
2023-01-03T03:28:29.323Z,0.61
2023-01-03T03:31:02.285Z,0.76
2023-01-03T03:33:38.008Z,0.70
2023-01-03T03:36:12.149Z,0.40
2023-01-03T03:38:45.126Z,0.49
2023-01-03T03:41:41.566Z,0.42
2023-01-03T03:44:38.824Z,0.27
2023-01-03T03:47:19.706Z,0.43
2023-01-03T03:49:51.838Z,0.45
2023-01-03T03:52:25.278Z,0.48
2023-01-03T03:55:02.404Z,0.23
2023-01-03T03:57:37.580Z,0.20
2023-01-03T04:00:15.632Z,0.43
2023-01-03T04:02:47.006Z,0.46
2023-01-03T04:05:18.298Z,0.59
2023-01-03T04:07:45.364Z,0.70
2023-01-03T04:10:13.445Z,0.49
2023-01-03T04:12:40.397Z,0.38
2023-01-03T04:15:07.911Z,0.52
2023-01-03T04:17:34.928Z,0.45
2023-01-03T04:20:04.194Z,0.59
2023-01-03T04:22:30.987Z,0.73
2023-01-03T04:24:58.088Z,0.77
2023-01-03T04:27:25.029Z,0.64
2023-01-03T04:29:51.826Z,1.18
2023-01-03T04:32:18.598Z,0.97
2023-01-03T04:34:45.861Z,0.97
2023-01-03T04:37:12.954Z,0.90
2023-01-03T04:39:39.784Z,1.25
2023-01-03T04:42:26.984Z,1.30
2023-01-03T04:44:53.910Z,1.11
2023-01-03T04:47:20.867Z,1.19
2023-01-03T04:49:47.930Z,1.27
2023-01-03T04:52:15.953Z,1.20
2023-01-03T04:54:43.263Z,1.38
2023-01-03T04:57:10.832Z,1.45
2023-01-03T04:59:38.824Z,1.15
2023-01-03T05:02:05.653Z,1.15
2023-01-03T05:04:32.784Z,1.05
2023-01-03T05:06:59.921Z,1.25
2023-01-03T05:09:27.461Z,0.82
2023-01-03T05:11:54.650Z,0.74
2023-01-03T05:14:21.360Z,0.53
2023-01-03T05:16:48.179Z,0.60
2023-01-03T05:19:15.173Z,0.38
2023-01-03T05:22:00.403Z,0.41
2023-01-03T05:24:45.994Z,0.67
2023-01-03T05:27:12.844Z,0.60
2023-01-03T05:29:39.819Z,0.59
2023-01-03T05:32:06.599Z,0.59
2023-01-03T05:34:33.313Z,0.28
2023-01-03T05:37:00.029Z,0.56
2023-01-03T05:39:26.959Z,0.49
2023-01-03T05:41:59.615Z,0.55
2023-01-03T05:44:34.057Z,0.45
2023-01-03T05:47:02.848Z,0.56
2023-01-03T05:49:29.690Z,0.44
2023-01-03T05:51:56.633Z,0.44
2023-01-03T05:54:23.402Z,0.42
2023-01-03T05:56:51.315Z,0.72
2023-01-03T05:59:19.537Z,0.63
2023-01-03T06:01:46.333Z,0.66
2023-01-03T06:04:13.371Z,0.94
2023-01-03T06:06:40.353Z,0.77
2023-01-03T06:09:07.231Z,0.68
2023-01-03T06:11:34.057Z,0.42
2023-01-03T06:14:00.905Z,0.28
2023-01-03T06:16:46.164Z,0.20
2023-01-03T06:19:13.075Z,0.69
2023-01-03T06:21:41.704Z,0.89
2023-01-03T06:24:09.624Z,1.03
2023-01-03T06:26:36.961Z,0.87
2023-01-03T06:29:05.353Z,0.72
2023-01-03T06:31:32.552Z,0.96
2023-01-03T06:33:59.967Z,1.21
2023-01-03T06:36:27.179Z,0.83
2023-01-03T06:39:03.690Z,1.00
2023-01-03T06:41:36.162Z,1.24
2023-01-03T06:44:09.420Z,0.91
2023-01-03T06:46:55.832Z,0.80
2023-01-03T06:49:41.547Z,0.85
2023-01-03T06:52:36.239Z,0.88
2023-01-03T06:55:03.649Z,0.23
2023-01-03T06:57:30.428Z,0.37
2023-01-03T06:59:57.243Z,1.02
2023-01-03T07:02:25.219Z,1.33
2023-01-03T07:04:52.065Z,1.22
2023-01-03T07:07:18.907Z,1.09
2023-01-03T07:09:45.797Z,1.17
2023-01-03T07:12:39.829Z,1.19
2023-01-03T07:15:07.107Z,1.31
2023-01-03T07:17:33.892Z,1.33
2023-01-03T07:20:04.588Z,0.51
2023-01-03T07:22:31.437Z,0.71
2023-01-03T07:24:58.237Z,1.11
2023-01-03T07:27:25.009Z,0.86
2023-01-03T07:30:00.445Z,1.32
2023-01-03T07:32:27.313Z,0.93
2023-01-03T07:34:54.022Z,1.09
2023-01-03T07:37:20.784Z,1.59
2023-01-03T07:39:47.836Z,1.40
2023-01-03T07:42:33.019Z,1.23
2023-01-03T07:45:00.063Z,1.35
2023-01-03T07:47:26.772Z,1.31
2023-01-03T07:49:54.903Z,1.30
2023-01-03T07:52:21.709Z,1.55
2023-01-03T07:54:52.442Z,1.67
2023-01-03T07:57:19.849Z,1.55
2023-01-03T07:59:48.273Z,1.44
2023-01-03T08:02:15.213Z,1.82
2023-01-03T08:04:42.082Z,1.42
2023-01-03T08:10:16.189Z,1.22
2023-01-03T08:13:02.004Z,1.42
2023-01-03T08:15:28.675Z,1.75
2023-01-03T08:17:55.363Z,1.54
2023-01-03T08:20:22.217Z,1.46
2023-01-03T08:22:49.284Z,1.85
2023-01-03T08:25:16.106Z,2.32
2023-01-03T08:27:48.196Z,2.04
2023-01-03T08:30:17.003Z,1.59
2023-01-03T08:32:43.865Z,1.71
2023-01-03T08:35:11.433Z,1.83
2023-01-03T08:37:38.453Z,1.61
2023-01-03T08:40:06.046Z,1.99
2023-01-03T08:42:34.031Z,1.99
2023-01-03T08:45:08.903Z,1.87
2023-01-03T08:47:36.085Z,1.93
2023-01-03T08:50:04.183Z,2.10
2023-01-03T08:52:35.050Z,1.67
2023-01-03T08:55:02.929Z,2.04
2023-01-03T08:57:29.918Z,1.80
2023-01-03T08:59:56.783Z,1.53
2023-01-03T09:02:23.859Z,1.71
2023-01-03T09:04:51.220Z,1.83
2023-01-03T09:07:18.161Z,1.55
2023-01-03T09:09:45.038Z,1.65
2023-01-03T09:12:11.876Z,2.01
2023-01-03T09:14:38.773Z,1.83
2023-01-03T09:17:08.538Z,2.07
2023-01-03T09:19:37.449Z,1.93
2023-01-03T09:22:04.283Z,1.87
2023-01-03T09:24:31.162Z,2.01
2023-01-03T09:26:58.090Z,2.19
2023-01-03T09:29:25.125Z,2.16
2023-01-03T09:31:52.315Z,2.42
2023-01-03T09:34:19.662Z,2.08
2023-01-03T09:36:46.544Z,2.47
2023-01-03T09:39:14.427Z,2.36
2023-01-03T09:41:41.971Z,2.57
2023-01-03T09:44:10.327Z,2.57
2023-01-03T09:46:37.909Z,2.29
2023-01-03T09:49:07.429Z,2.14
2023-01-03T09:51:59.938Z,2.31
2023-01-03T09:54:55.845Z,2.46
2023-01-03T09:57:50.690Z,2.17
2023-01-03T10:00:57.496Z,2.72
2023-01-03T10:03:48.364Z,2.43
2023-01-03T10:06:23.778Z,2.44
2023-01-03T10:09:09.616Z,3.09
2023-01-03T10:11:36.404Z,2.84
2023-01-03T10:14:30.231Z,2.69
2023-01-03T10:17:01.825Z,2.85
2023-01-03T10:19:43.979Z,2.79
2023-01-03T10:22:27.051Z,2.86
2023-01-03T10:24:59.317Z,3.28
2023-01-03T10:27:33.608Z,2.93
2023-01-03T10:30:02.693Z,2.71
2023-01-03T10:32:38.390Z,2.91
2023-01-03T10:35:23.565Z,2.90
2023-01-03T10:37:55.149Z,2.99
2023-01-03T10:40:35.483Z,3.14
2023-01-03T10:43:28.927Z,3.14
2023-01-03T10:45:57.583Z,3.30
2023-01-03T10:48:26.302Z,3.48
2023-01-03T10:50:54.052Z,3.63
2023-01-03T10:53:23.119Z,3.77
2023-01-03T10:55:54.400Z,4.61
2023-01-03T10:58:32.146Z,3.77
2023-01-03T11:01:21.105Z,4.31
2023-01-03T11:04:09.956Z,4.41
2023-01-03T11:06:37.070Z,4.42
2023-01-03T11:09:10.761Z,4.35
2023-01-03T11:11:41.668Z,4.67
2023-01-03T11:14:20.407Z,4.52
2023-01-03T11:17:03.937Z,5.22
2023-01-03T11:19:33.028Z,4.78
2023-01-03T11:22:03.007Z,4.80
2023-01-03T11:24:49.463Z,4.94
2023-01-03T11:27:52.145Z,4.98
2023-01-03T11:30:22.138Z,4.96
2023-01-03T11:33:04.013Z,5.12
2023-01-03T11:35:36.950Z,4.95
2023-01-03T11:38:31.343Z,5.13
2023-01-03T11:41:14.118Z,5.38
2023-01-03T11:43:58.971Z,5.52
2023-01-03T11:46:34.900Z,5.66
2023-01-03T11:49:25.781Z,5.72
2023-01-03T11:52:01.736Z,6.01
2023-01-03T11:55:03.806Z,5.78
2023-01-03T11:57:59.861Z,6.01
2023-01-03T12:00:31.694Z,5.86
2023-01-03T12:03:09.723Z,6.36
2023-01-03T12:06:08.426Z,6.16
2023-01-03T12:08:56.231Z,6.44
2023-01-03T12:11:25.534Z,6.58
2023-01-03T12:14:06.952Z,6.76
2023-01-03T12:16:40.774Z,6.89
2023-01-03T12:19:37.276Z,6.78
2023-01-03T12:22:22.666Z,6.92
2023-01-03T12:25:04.404Z,7.11
2023-01-03T12:27:44.645Z,7.22
2023-01-03T12:30:45.616Z,7.25
2023-01-03T12:33:39.042Z,7.26
2023-01-03T12:36:27.717Z,7.41
2023-01-03T12:39:08.082Z,7.51
2023-01-03T12:41:43.049Z,7.77
2023-01-03T12:44:22.492Z,7.79
2023-01-03T12:46:53.124Z,7.70
2023-01-03T12:49:52.377Z,8.09
2023-01-03T12:52:22.713Z,7.82
2023-01-03T12:55:25.028Z,8.05
2023-01-03T12:58:13.326Z,8.02
2023-01-03T13:00:52.945Z,7.99
2023-01-03T13:03:25.709Z,7.99
2023-01-03T13:06:01.065Z,8.20
2023-01-03T13:08:34.522Z,8.03
2023-01-03T13:11:18.487Z,8.06
2023-01-03T13:13:57.565Z,8.16
2023-01-03T13:16:36.593Z,8.35
2023-01-03T13:19:21.890Z,8.37
2023-01-03T13:21:54.787Z,8.40
2023-01-03T13:24:39.956Z,8.28
2023-01-03T13:27:37.548Z,8.41
2023-01-03T13:30:19.929Z,8.40
2023-01-03T13:32:50.217Z,8.31
2023-01-03T13:35:16.840Z,8.36
2023-01-03T13:37:51.551Z,8.45
2023-01-03T13:41:07.455Z,8.18
2023-01-03T13:43:32.347Z,8.21
2023-01-03T13:46:20.568Z,8.18
2023-01-03T13:49:05.753Z,8.05
2023-01-03T13:51:50.067Z,8.00
2023-01-03T13:54:16.856Z,8.16
2023-01-03T13:56:57.560Z,8.12
2023-01-03T13:59:58.932Z,8.20
2023-01-03T14:02:44.856Z,8.05
2023-01-03T14:05:30.146Z,7.68
2023-01-03T14:08:21.265Z,7.73
2023-01-03T14:10:54.152Z,7.70
2023-01-03T14:13:53.401Z,7.68
2023-01-03T14:16:41.708Z,7.76
2023-01-03T14:19:37.036Z,7.83
2023-01-03T14:22:31.502Z,7.73
2023-01-03T14:24:59.355Z,7.72
2023-01-03T14:27:46.810Z,7.77
2023-01-03T14:30:26.545Z,7.64
2023-01-03T14:32:53.741Z,7.68
2023-01-03T14:35:39.209Z,7.68
2023-01-03T14:38:07.515Z,7.61
2023-01-03T14:40:34.919Z,7.68
2023-01-03T14:43:05.542Z,7.86
2023-01-03T14:45:32.431Z,7.94
2023-01-03T14:48:00.502Z,7.80
2023-01-03T14:50:28.645Z,7.71
2023-01-03T14:52:59.783Z,7.54
2023-01-03T14:55:29.586Z,7.50
2023-01-03T14:57:57.695Z,7.48
2023-01-03T15:00:33.360Z,7.50
2023-01-03T15:03:02.531Z,7.26
2023-01-03T15:05:43.708Z,7.20
2023-01-03T15:08:34.756Z,7.10
2023-01-03T15:11:09.167Z,7.09
2023-01-03T15:14:14.576Z,7.13
2023-01-03T15:16:42.868Z,6.68
2023-01-03T15:19:22.624Z,6.68
2023-01-03T15:21:50.048Z,6.91
2023-01-03T15:24:22.061Z,6.76
2023-01-03T15:26:51.113Z,6.81
2023-01-03T15:29:47.582Z,6.52
2023-01-03T15:32:29.922Z,6.39
2023-01-03T15:34:59.879Z,6.30
2023-01-03T15:37:27.040Z,6.39
2023-01-03T15:39:56.918Z,6.18
2023-01-03T15:42:50.366Z,6.08
2023-01-03T15:45:39.588Z,6.17
2023-01-03T15:48:18.879Z,6.10
2023-01-03T15:50:53.360Z,5.86
2023-01-03T15:53:46.683Z,5.76
2023-01-03T15:56:23.103Z,5.86
2023-01-03T15:58:53.477Z,5.88
2023-01-03T16:01:25.155Z,5.93
2023-01-03T16:03:53.191Z,5.86
2023-01-03T16:06:20.537Z,5.86
2023-01-03T16:09:10.779Z,5.86
2023-01-03T16:11:41.096Z,5.98
2023-01-03T16:14:34.372Z,5.99
2023-01-03T16:17:02.718Z,5.78
2023-01-03T16:19:30.663Z,5.49
2023-01-03T16:22:33.850Z,5.71
2023-01-03T16:24:53.418Z,5.76
2023-01-03T16:27:25.444Z,5.65
2023-01-03T16:29:52.672Z,5.50
2023-01-03T16:32:34.568Z,5.55
2023-01-03T16:47:16.407Z,5.04
2023-01-03T16:49:45.296Z,5.24
2023-01-03T16:55:57.770Z,5.46
2023-01-03T16:58:39.089Z,5.49
2023-01-03T17:01:09.295Z,5.39
2023-01-03T17:04:15.895Z,5.45
2023-01-03T17:06:54.305Z,5.65
2023-01-03T17:17:27.884Z,5.16
2023-01-03T17:23:34.094Z,5.33
2023-01-03T17:26:03.659Z,4.99
2023-01-03T17:28:39.562Z,4.85
2023-01-03T17:31:06.766Z,4.59
2023-01-03T17:33:34.382Z,4.58
2023-01-03T17:36:05.542Z,4.52
2023-01-03T17:38:34.144Z,4.22
2023-01-03T17:41:03.932Z,4.16
2023-01-03T17:43:38.295Z,4.21
2023-01-03T17:46:34.591Z,4.42
2023-01-03T17:57:15.105Z,4.36
2023-01-03T17:59:42.207Z,4.48
2023-01-03T18:02:29.542Z,4.36
2023-01-03T18:05:21.378Z,4.64
2023-01-03T18:07:46.849Z,4.51
2023-01-03T18:10:23.377Z,4.61
2023-01-03T18:12:50.307Z,4.69
2023-01-03T18:15:19.554Z,4.52
2023-01-03T18:17:47.415Z,4.39
2023-01-03T18:20:17.622Z,4.57
2023-01-03T18:22:46.310Z,4.54
2023-01-03T18:25:31.348Z,4.47
2023-01-03T18:28:02.907Z,4.47
2023-01-03T18:30:30.061Z,4.50
2023-01-03T18:32:57.740Z,4.41
2023-01-03T18:35:30.940Z,4.27
2023-01-03T18:37:59.855Z,4.40
2023-01-03T18:40:29.340Z,4.36
2023-01-03T18:43:09.478Z,4.51
2023-01-03T18:45:37.898Z,4.51
2023-01-03T18:48:05.544Z,4.57
2023-01-03T18:50:33.048Z,4.48
2023-01-03T18:53:04.411Z,4.60
2023-01-03T18:55:38.627Z,4.51
2023-01-03T18:58:23.762Z,4.39
2023-01-03T19:00:50.728Z,4.35
2023-01-03T19:03:24.130Z,4.14
2023-01-03T19:05:52.287Z,4.11
2023-01-03T19:08:20.769Z,4.14
2023-01-03T19:10:47.906Z,4.26
2023-01-03T19:13:30.491Z,4.38
2023-01-03T19:15:57.543Z,4.15
2023-01-03T19:18:24.304Z,4.06
2023-01-03T19:20:51.457Z,3.82
2023-01-03T19:23:28.221Z,3.85
2023-01-03T19:26:01.688Z,3.58
2023-01-03T19:28:29.253Z,3.55
2023-01-03T19:30:56.193Z,3.60
2023-01-03T19:33:23.586Z,3.23
2023-01-03T19:35:50.455Z,3.34
2023-01-03T19:38:17.343Z,3.09
2023-01-03T19:40:47.994Z,3.04
2023-01-03T19:43:22.715Z,3.14
2023-01-03T19:45:50.002Z,3.27
2023-01-03T19:48:22.865Z,3.54
2023-01-03T19:50:51.665Z,3.49
2023-01-03T19:53:18.966Z,3.71
2023-01-03T19:55:49.167Z,3.57
2023-01-03T19:58:18.938Z,3.73
2023-01-03T20:01:04.420Z,3.47
2023-01-03T20:03:57.713Z,3.34
2023-01-03T20:06:25.172Z,3.48
2023-01-03T20:08:54.034Z,3.32
2023-01-03T20:11:23.322Z,3.23
2023-01-03T20:13:50.317Z,3.37
2023-01-03T20:16:17.182Z,3.32
2023-01-03T20:18:44.520Z,3.02
2023-01-03T20:21:27.011Z,2.73
2023-01-03T20:24:01.965Z,2.93
2023-01-03T20:26:32.193Z,3.29
2023-01-03T20:29:00.358Z,3.30
2023-01-03T20:31:30.567Z,3.01
2023-01-03T20:34:00.275Z,3.09
2023-01-03T20:36:38.078Z,3.09
2023-01-03T20:39:21.709Z,2.44
2023-01-03T20:42:03.269Z,2.66
2023-01-03T20:44:30.791Z,3.08
2023-01-03T20:46:57.765Z,3.11
2023-01-03T20:49:29.196Z,3.12
2023-01-03T20:51:56.028Z,3.01
2023-01-03T20:54:22.877Z,2.77
2023-01-03T20:56:49.948Z,3.06
2023-01-03T20:59:19.022Z,2.98
2023-01-03T21:01:47.884Z,3.22
2023-01-03T21:04:17.990Z,3.27
2023-01-03T21:06:45.744Z,3.09
2023-01-03T21:09:14.288Z,2.80
2023-01-03T21:11:41.196Z,3.06
2023-01-03T21:14:09.678Z,3.17
2023-01-03T21:16:45.364Z,3.47
2023-01-03T21:19:17.364Z,3.31
2023-01-03T21:21:46.982Z,3.21
2023-01-03T21:24:15.537Z,3.11
2023-01-03T21:26:42.946Z,2.87
2023-01-03T21:29:10.450Z,2.73
2023-01-03T21:31:38.651Z,2.43
2023-01-03T21:34:07.118Z,2.26
2023-01-03T21:36:38.349Z,2.25
2023-01-03T21:39:05.705Z,2.17
2023-01-03T21:41:35.595Z,2.17
2023-01-03T21:44:04.046Z,2.19
2023-01-03T21:46:33.194Z,2.24
2023-01-03T21:49:01.543Z,2.01
2023-01-03T21:51:39.187Z,1.87
2023-01-03T21:54:12.358Z,1.97
2023-01-03T21:56:46.294Z,2.09
2023-01-03T21:59:15.105Z,1.95
2023-01-03T22:02:05.802Z,2.20
2023-01-03T22:04:33.437Z,1.89
2023-01-03T22:07:03.123Z,1.91
2023-01-03T22:09:50.553Z,1.76
2023-01-03T22:12:29.145Z,1.86
2023-01-03T22:14:56.202Z,1.72
2023-01-03T22:17:22.903Z,2.05
2023-01-03T22:19:50.752Z,2.47
2023-01-03T22:22:17.670Z,2.57
2023-01-03T22:24:44.910Z,2.71
2023-01-03T22:27:11.690Z,2.57
2023-01-03T22:29:38.537Z,2.30
2023-01-03T22:32:09.838Z,2.25
2023-01-03T22:34:40.792Z,2.05
2023-01-03T22:37:07.637Z,1.78
2023-01-03T22:39:34.645Z,2.39
2023-01-03T22:42:01.431Z,2.18
2023-01-03T22:44:28.299Z,1.96
2023-01-03T22:46:55.010Z,2.31
2023-01-03T22:49:21.892Z,2.54
2023-01-03T22:51:48.620Z,2.20
2023-01-03T22:54:21.894Z,2.16
2023-01-03T22:56:48.685Z,2.05
2023-01-03T22:59:16.092Z,1.98
2023-01-03T23:01:43.157Z,1.77
2023-01-03T23:04:10.392Z,2.29
2023-01-03T23:06:37.332Z,1.71
2023-01-03T23:09:04.381Z,1.71
2023-01-03T23:11:52.259Z,1.59
2023-01-03T23:14:21.115Z,1.61
2023-01-03T23:16:49.038Z,1.60
2023-01-03T23:19:22.268Z,1.51
2023-01-03T23:21:49.278Z,1.22
2023-01-03T23:24:22.644Z,1.53
2023-01-03T23:26:51.821Z,1.49
2023-01-03T23:29:18.829Z,1.41
2023-01-03T23:31:46.022Z,1.19
2023-01-03T23:34:13.395Z,1.36
2023-01-03T23:36:43.482Z,1.55
2023-01-03T23:39:15.507Z,1.75
2023-01-03T23:41:42.615Z,1.27
2023-01-03T23:44:09.884Z,1.24
2023-01-03T23:46:36.797Z,1.20
2023-01-03T23:49:04.267Z,1.14
2023-01-03T23:51:31.031Z,1.17
2023-01-03T23:53:58.345Z,1.10
2023-01-03T23:56:28.889Z,1.12
2023-01-03T23:58:56.069Z,1.08
